Pintada, New Mexico
Current Conditions -  °F | °C
As of 6:53 AM on Thursday 30 Oct 2014 (Local Time) from KCQC Reporting Station
Clear Clear  
Wind Chill:   Ceiling: Unl
Heat Index:   Visibility: 10mi
Dew Point: -12°   Wind: 7mph
Humidity: 28%   Direction: 310°NW
Pressure: 30.33"   Gusts: NA
Location:  34.8581°N, 104.704°W
Report Text: KCQC 301253Z AUTO 31006KT 10SM CLR 06/M12 A3033 RMK AO2 SLP231 T00561117
Loading
Personal Weather Stations






























Interactive Weather Map
Tropical Storm Tracking
New forecast layout! Learn more

10-Day Weather Forecast

Advertisements
Track Severe Weather on mobile